Perkins Township, Maine
Current Conditions -  °F | °C
As of 11:53 PM on Saturday 25 Oct 2014 (Local Time) from KAUG Reporting Station
Light Rain Light Rain  
Wind Chill: 48°   Ceiling: 6000
Heat Index: 48°   Visibility: 10mi
Dew Point: 45°   Wind: 0mph
Humidity: 89%   Direction: NA
Pressure: 29.45"   Gusts: NA
Location:  44.5915°N, 70.2983°W
Report Text: KAUG 260353Z AUTO 00000KT 10SM -RA OVC060 09/07 A2945 RMK AO2 RAB04 SLP974 P0001 T00890072
Loading
Personal Weather Stations






























Interactive Weather Map
Tropical Storm Tracking
New forecast layout! Learn more

10-Day Weather Forecast

Advertisements
Track Severe Weather on mobile